Time;durP1;ratioP1;P1;durP2;ratioP2;P2;SDS_P1;SDS_P2;PMS_P1;PMS_P2;Temp;Humidity;BMP_temperature;BMP_pressure;BME280_temperature;BME280_humidity;BME280_pressure;Samples;Min_cycle;Max_cycle;Signal;HPM_P1;HPM_P2
2022/04/04 00:00:43;;;;;;;8.60;5.40;;;;;;;13.21;41.24;101942.47;5031630;28;20424;-72
2022/04/04 00:03:09;;;;;;;9.10;5.43;;;;;;;13.07;40.59;101930.25;5030844;28;20034;-72
2022/04/04 00:05:35;;;;;;;14.87;5.30;;;;;;;13.22;41.10;101928.47;5030786;28;20031;-72
2022/04/04 00:08:01;;;;;;;13.27;5.90;;;;;;;13.15;41.36;101926.75;5031373;28;20060;-72
2022/04/04 00:10:26;;;;;;;12.07;5.20;;;;;;;11.92;43.48;101927.69;5032480;28;20065;-72
2022/04/04 00:12:52;;;;;;;8.87;5.33;;;;;;;13.54;40.59;101909.09;5030946;28;20030;-72
2022/04/04 00:15:17;;;;;;;10.13;5.13;;;;;;;11.81;43.58;101910.19;5039546;28;20509;-73
2022/04/04 00:17:45;;;;;;;13.47;5.57;;;;;;;13.29;40.90;101892.56;5031236;28;20075;-72
2022/04/04 00:20:11;;;;;;;8.83;5.07;;;;;;;12.91;42.03;101891.81;5031168;28;20029;-72
2022/04/04 00:22:36;;;;;;;10.23;5.27;;;;;;;12.78;42.33;101892.75;5031499;28;20053;-72
2022/04/04 00:25:03;;;;;;;10.93;4.97;;;;;;;12.85;41.56;101876.97;5042343;28;20021;-72
2022/04/04 00:27:28;;;;;;;7.60;4.50;;;;;;;12.32;42.93;101886.69;5030528;28;20026;-73
2022/04/04 00:29:54;;;;;;;9.93;4.80;;;;;;;12.66;42.26;101878.75;5031741;28;20504;-72
2022/04/04 00:32:19;;;;;;;10.83;4.43;;;;;;;12.66;42.60;101881.38;5031579;28;20101;-72
2022/04/04 00:34:45;;;;;;;7.17;4.30;;;;;;;13.57;41.03;101877.56;5031502;28;20567;-72
2022/04/04 00:37:10;;;;;;;6.80;4.90;;;;;;;12.38;43.76;101868.31;5029525;28;20030;-72
2022/04/04 00:39:36;;;;;;;8.30;4.17;;;;;;;13.34;41.40;101864.53;5031379;28;20029;-72
2022/04/04 00:42:01;;;;;;;8.17;4.87;;;;;;;12.94;41.61;101870.84;5030961;28;20398;-72
2022/04/04 00:44:26;;;;;;;9.67;4.43;;;;;;;13.06;41.91;101864.66;5029799;28;20489;-72
2022/04/04 00:46:52;;;;;;;9.20;4.77;;;;;;;11.84;44.28;101863.06;5031246;28;20025;-72
2022/04/04 00:49:17;;;;;;;11.80;5.00;;;;;;;13.00;42.41;101859.44;5029881;28;20461;-72
2022/04/04 00:51:43;;;;;;;8.03;4.40;;;;;;;12.90;42.13;101861.22;5031435;28;20030;-72
2022/04/04 00:54:08;;;;;;;8.63;4.30;;;;;;;13.62;41.00;101839.00;5031699;28;20477;-72
2022/04/04 00:56:35;;;;;;;7.43;4.47;;;;;;;12.94;41.79;101844.59;5029176;28;20537;-72
2022/04/04 00:59:02;;;;;;;6.93;3.80;;;;;;;12.83;42.44;101838.50;5031399;28;20033;-72
2022/04/04 01:01:28;;;;;;;8.30;4.17;;;;;;;13.16;42.22;101833.97;5029274;28;20083;-72
2022/04/04 01:03:53;;;;;;;6.77;3.97;;;;;;;12.94;42.41;101831.47;5029126;28;20033;-72
2022/04/04 01:06:19;;;;;;;9.33;4.40;;;;;;;12.23;43.41;101823.78;5030412;28;20017;-72
2022/04/04 01:08:44;;;;;;;7.43;4.20;;;;;;;12.47;44.35;101821.97;5038979;28;20122;-72
2022/04/04 01:11:10;;;;;;;11.00;4.20;;;;;;;13.03;42.89;101805.16;5043760;28;20079;-71
2022/04/04 01:13:36;;;;;;;11.40;4.27;;;;;;;13.74;41.46;101807.41;5030241;28;20084;-72
2022/04/04 01:16:01;;;;;;;10.63;4.80;;;;;;;13.50;41.49;101797.94;5029200;28;20055;-72
2022/04/04 01:18:27;;;;;;;12.77;4.47;;;;;;;13.82;40.44;101803.81;5041583;28;20039;-72
2022/04/04 01:20:52;;;;;;;13.13;4.70;;;;;;;13.87;40.19;101802.91;5030800;28;20390;-72
2022/04/04 01:23:25;;;;;;;15.93;4.83;;;;;;;13.88;40.63;101788.88;5037334;28;20037;-72
2022/04/04 01:25:51;;;;;;;9.80;4.75;;;;;;;14.17;40.21;101787.75;5029188;28;20057;-72
2022/04/04 01:28:17;;;;;;;4.77;3.50;;;;;;;13.66;41.29;101782.06;5028943;28;20029;-72
2022/04/04 01:30:47;;;;;;;14.60;5.40;;;;;;;13.40;41.33;101770.84;5028852;28;20024;-72
2022/04/04 01:33:13;;;;;;;14.90;5.00;;;;;;;13.44;40.66;101773.50;5030353;28;20473;-72
2022/04/04 01:35:38;;;;;;;8.77;4.57;;;;;;;12.96;42.42;101769.34;5023431;28;20037;-73
2022/04/04 01:38:04;;;;;;;8.67;4.07;;;;;;;13.02;41.95;101764.09;5044085;28;20048;-71
2022/04/04 01:40:30;;;;;;;12.60;4.80;;;;;;;13.87;40.76;101757.38;5029366;28;20481;-71
2022/04/04 01:42:56;;;;;;;11.23;5.83;;;;;;;13.44;41.34;101749.84;5030082;28;20040;-71
2022/04/04 01:46:23;;;;;;;8.83;4.70;;;;;;;13.79;40.63;101746.06;5028191;28;20394;-72
2022/04/04 01:48:09;;;;;;;12.60;5.70;;;;;;;12.93;42.75;101742.22;5029760;28;20055;-71
2022/04/04 01:50:36;;;;;;;10.17;5.20;;;;;;;12.72;42.76;101729.25;5030860;28;20029;-72
2022/04/04 01:55:46;;;;;;;14.83;6.30;;;;;;;14.34;39.36;101713.06;5030855;28;20048;-71
2022/04/04 01:58:11;;;;;;;11.90;6.10;;;;;;;13.83;40.51;101718.88;5027884;28;20033;-72
2022/04/04 02:00:38;;;;;;;12.33;6.23;;;;;;;14.37;39.23;101708.66;5029551;28;20049;-72
2022/04/04 02:03:03;;;;;;;13.33;6.40;;;;;;;12.59;42.80;101710.94;5029877;28;20075;-72
2022/04/04 02:05:29;;;;;;;8.03;5.50;;;;;;;13.53;40.79;101702.47;5029613;28;20037;-71
2022/04/04 02:07:54;;;;;;;13.20;5.83;;;;;;;14.51;39.10;101691.84;5036132;28;20075;-72
2022/04/04 02:10:21;;;;;;;10.27;7.17;;;;;;;13.91;40.60;101696.00;5030244;28;20029;-71
2022/04/04 02:12:46;;;;;;;14.13;6.33;;;;;;;13.18;41.62;101698.34;5027777;28;20105;-71
2022/04/04 02:15:13;;;;;;;15.40;7.83;;;;;;;13.60;40.44;101683.19;5028372;28;20131;-71
2022/04/04 02:17:38;;;;;;;13.63;7.63;;;;;;;13.27;42.05;101674.66;5020597;28;20025;-72
2022/04/04 02:20:05;;;;;;;12.20;7.83;;;;;;;13.76;40.89;101677.78;5028746;28;20079;-72
2022/04/04 02:22:30;;;;;;;15.13;9.20;;;;;;;13.07;41.92;101670.41;5028387;28;20045;-72
2022/04/04 02:24:55;;;;;;;15.47;8.27;;;;;;;13.60;40.61;101669.16;5028760;28;20060;-72
2022/04/04 02:27:22;;;;;;;22.53;9.27;;;;;;;13.79;40.25;101668.09;5026971;28;20036;-72
2022/04/04 02:29:47;;;;;;;15.07;7.43;;;;;;;12.87;42.49;101653.94;5030129;28;20113;-72
2022/04/04 02:32:12;;;;;;;16.60;7.77;;;;;;;13.36;41.32;101647.50;5027789;28;20112;-71
2022/04/04 02:34:38;;;;;;;14.63;7.07;;;;;;;13.04;42.67;101638.94;5029452;28;20029;-71
2022/04/04 02:37:03;;;;;;;7.93;5.50;;;;;;;12.70;42.47;101630.44;5030740;28;20080;-72
2022/04/04 02:39:29;;;;;;;9.30;5.30;;;;;;;13.29;42.16;101628.25;5029808;28;20087;-71
2022/04/04 02:41:55;;;;;;;14.30;5.63;;;;;;;13.97;40.64;101625.00;5027415;28;20033;-71
2022/04/04 02:44:20;;;;;;;9.07;5.67;;;;;;;13.47;41.02;101615.88;5028439;28;20025;-71
2022/04/04 02:46:46;;;;;;;10.90;5.77;;;;;;;13.62;40.62;101617.50;5028667;28;20033;-71
2022/04/04 02:49:11;;;;;;;11.57;6.37;;;;;;;12.79;42.52;101603.25;5028344;28;20517;-71
2022/04/04 02:51:37;;;;;;;13.10;5.27;;;;;;;13.47;41.18;101602.75;5029248;28;20481;-71
2022/04/04 02:54:02;;;;;;;15.70;5.87;;;;;;;13.29;41.74;101599.38;5029022;28;20025;-71
2022/04/04 02:56:30;;;;;;;12.17;5.33;;;;;;;14.70;39.14;101577.59;5023791;28;20497;-71
2022/04/04 02:59:00;;;;;;;14.50;6.63;;;;;;;13.54;41.33;101579.00;5019815;28;20033;-72
2022/04/04 03:01:26;;;;;;;10.27;5.83;;;;;;;13.33;41.65;101582.72;5038349;28;20527;-72
2022/04/04 03:03:54;;;;;;;9.23;5.70;;;;;;;13.96;40.28;101565.44;5030014;28;20076;-72
2022/04/04 03:06:20;;;;;;;12.90;6.23;;;;;;;12.80;43.01;101568.28;5027940;28;20021;-72
2022/04/04 03:08:45;;;;;;;9.10;5.53;;;;;;;13.22;41.17;101560.94;5027318;28;20085;-72
2022/04/04 03:11:11;;;;;;;6.13;5.23;;;;;;;14.41;39.08;101555.19;5028352;28;20293;-71
2022/04/04 03:13:36;;;;;;;12.37;4.87;;;;;;;14.25;39.45;101549.25;5029425;28;20362;-72
2022/04/04 03:16:02;;;;;;;12.70;5.60;;;;;;;13.46;41.05;101545.84;5027255;28;20025;-72
2022/04/04 03:18:27;;;;;;;15.17;6.43;;;;;;;13.76;40.84;101541.16;5029313;28;20033;-71
2022/04/04 03:20:53;;;;;;;10.77;5.70;;;;;;;12.28;43.38;101536.31;5029281;28;20037;-72
2022/04/04 03:23:20;;;;;;;16.33;6.80;;;;;;;11.93;44.05;101537.31;5027069;28;20495;-72
2022/04/04 03:25:47;;;;;;;9.67;6.17;;;;;;;13.19;42.36;101524.22;5029950;28;20139;-71
2022/04/04 03:28:12;;;;;;;10.83;5.37;;;;;;;13.84;40.69;101518.28;5032426;28;20029;-71
2022/04/04 03:30:37;;;;;;;11.70;5.40;;;;;;;13.09;42.00;101509.44;5032238;28;20041;-72
2022/04/04 03:33:03;;;;;;;10.70;5.60;;;;;;;12.93;42.37;101508.69;5051698;28;20025;-72
2022/04/04 03:35:31;;;;;;;15.40;5.43;;;;;;;13.50;41.04;101497.66;5032585;28;20489;-71
2022/04/04 03:37:58;;;;;;;10.47;5.80;;;;;;;12.92;42.31;101494.72;5032358;28;20369;-72
2022/04/04 03:40:24;;;;;;;9.20;5.57;;;;;;;13.93;40.37;101486.63;5030712;28;20386;-71
2022/04/04 03:42:52;;;;;;;10.30;6.10;;;;;;;13.87;40.31;101482.28;5031752;28;20037;-71
2022/04/04 03:45:19;;;;;;;11.77;5.20;;;;;;;13.26;41.61;101473.41;5030463;28;20069;-72
2022/04/04 03:47:45;;;;;;;12.27;5.30;;;;;;;14.08;39.93;101470.63;5032818;28;20512;-72
2022/04/04 03:50:15;;;;;;;11.80;5.30;;;;;;;13.27;41.15;101463.75;5031092;28;20021;-72
2022/04/04 03:52:45;;;;;;;11.10;6.13;;;;;;;13.46;41.29;101460.06;5031430;28;20537;-72
2022/04/04 03:55:12;;;;;;;11.90;5.43;;;;;;;13.07;41.40;101446.47;5030920;28;20091;-72
2022/04/04 03:57:38;;;;;;;12.37;6.07;;;;;;;13.55;40.56;101449.44;5030557;28;20029;-72
2022/04/04 04:00:05;;;;;;;7.77;4.63;;;;;;;13.38;40.78;101436.53;5031092;28;20028;-72
2022/04/04 04:02:32;;;;;;;10.30;4.90;;;;;;;13.37;40.72;101433.94;5045405;28;20140;-72
2022/04/04 04:04:57;;;;;;;10.77;5.23;;;;;;;14.10;39.71;101432.94;5033114;28;20179;-72
2022/04/04 04:07:24;;;;;;;11.57;5.70;;;;;;;13.87;40.26;101431.50;5030773;28;20112;-72
2022/04/04 04:09:52;;;;;;;12.00;5.17;;;;;;;14.30;39.43;101427.38;5031003;28;20029;-72
2022/04/04 04:12:17;;;;;;;9.50;5.53;;;;;;;13.87;40.24;101424.47;5030933;28;20052;-72
2022/04/04 04:14:43;;;;;;;10.87;5.60;;;;;;;14.22;38.72;101417.00;5035646;28;20477;-72
2022/04/04 04:17:09;;;;;;;10.67;4.43;;;;;;;13.02;41.24;101412.41;5037686;28;20033;-72
2022/04/04 04:22:22;;;;;;;10.50;4.83;;;;;;;13.69;39.86;101404.59;5030689;28;20397;-72
2022/04/04 04:24:48;;;;;;;9.57;5.10;;;;;;;14.36;39.12;101406.25;5031039;28;20022;-72
2022/04/04 04:27:14;;;;;;;7.07;4.50;;;;;;;13.90;40.03;101397.31;5030692;28;20447;-72
2022/04/04 04:29:39;;;;;;;9.23;4.23;;;;;;;12.73;41.28;101389.97;5035480;28;20045;-72
2022/04/04 04:32:07;;;;;;;5.70;4.03;;;;;;;13.64;39.98;101377.56;5032701;28;20044;-72
2022/04/04 04:34:34;;;;;;;10.67;5.00;;;;;;;13.53;40.26;101379.44;5029981;28;20025;-72
2022/04/04 04:36:59;;;;;;;13.23;5.23;;;;;;;13.84;39.77;101376.38;5029906;28;20030;-72
2022/04/04 04:39:25;;;;;;;8.30;4.80;;;;;;;13.83;39.45;101364.13;5030122;28;20120;-72
2022/04/04 04:41:50;;;;;;;10.33;4.73;;;;;;;14.38;38.92;101358.00;5031302;28;20064;-72
2022/04/04 04:44:16;;;;;;;7.37;4.47;;;;;;;14.65;38.57;101354.91;5029997;28;20125;-72
2022/04/04 04:46:41;;;;;;;9.17;4.67;;;;;;;13.87;39.28;101361.41;5031513;28;20421;-72
2022/04/04 04:49:07;;;;;;;10.20;4.93;;;;;;;14.20;39.27;101347.78;5030701;28;20152;-72
2022/04/04 04:51:32;;;;;;;9.17;4.33;;;;;;;13.47;40.12;101341.00;5031957;28;20036;-72
2022/04/04 04:53:58;;;;;;;8.47;4.40;;;;;;;13.64;39.85;101338.16;5043280;28;20500;-72
2022/04/04 04:56:25;;;;;;;12.13;4.57;;;;;;;14.25;38.07;101331.03;5031511;28;20033;-72
2022/04/04 04:58:53;;;;;;;7.10;4.07;;;;;;;13.91;39.04;101328.09;5046337;28;20025;-72
2022/04/04 05:01:20;;;;;;;7.10;3.83;;;;;;;13.50;39.79;101314.69;5031511;28;20051;-72
2022/04/04 05:03:45;;;;;;;6.73;4.50;;;;;;;13.47;39.66;101312.09;5031196;28;20036;-71
2022/04/04 05:06:11;;;;;;;7.40;4.40;;;;;;;13.73;39.23;101306.47;5030063;28;20385;-72
2022/04/04 05:08:36;;;;;;;8.93;4.90;;;;;;;13.14;40.22;101300.28;5030974;28;20036;-72
2022/04/04 05:11:02;;;;;;;10.03;5.40;;;;;;;12.90;41.00;101292.72;5029803;28;20481;-72
2022/04/04 05:13:27;;;;;;;10.53;4.80;;;;;;;13.93;38.73;101291.28;5031139;28;20029;-72
2022/04/04 05:15:56;;;;;;;11.77;5.10;;;;;;;14.12;38.59;101286.56;5030047;28;20029;-72
2022/04/04 05:18:22;;;;;;;8.93;5.27;;;;;;;13.03;40.10;101267.19;5030961;28;20075;-72
2022/04/04 05:20:47;;;;;;;6.50;4.30;;;;;;;13.81;38.97;101276.59;5028979;28;20029;-72
2022/04/04 05:23:13;;;;;;;12.10;4.70;;;;;;;13.20;40.81;101268.69;5028014;28;20076;-72
2022/04/04 05:25:39;;;;;;;10.37;5.43;;;;;;;13.60;40.12;101262.91;5049568;28;20017;-72
2022/04/04 05:28:07;;;;;;;10.77;5.40;;;;;;;13.79;39.68;101238.94;5047965;28;20542;-72
2022/04/04 05:30:32;;;;;;;11.10;5.10;;;;;;;14.28;38.54;101245.97;5032735;28;20029;-72
2022/04/04 05:32:58;;;;;;;13.73;5.90;;;;;;;13.60;40.28;101239.28;5030217;28;20389;-72
2022/04/04 05:35:23;;;;;;;13.93;5.93;;;;;;;14.34;38.92;101235.34;5029157;28;20026;-72
2022/04/04 05:37:54;;;;;;;12.90;6.00;;;;;;;13.82;39.60;101246.78;5019067;28;20017;-72
2022/04/04 05:40:19;;;;;;;11.00;6.10;;;;;;;13.66;39.72;101235.69;5030535;28;20476;-72
2022/04/04 05:42:45;;;;;;;11.60;5.50;;;;;;;12.77;42.04;101233.41;5030487;28;20108;-71
2022/04/04 05:45:10;;;;;;;11.53;6.37;;;;;;;13.63;40.38;101236.59;5030330;28;20469;-72
2022/04/04 05:47:36;;;;;;;9.53;5.87;;;;;;;13.88;39.58;101230.91;5028730;28;20029;-72
2022/04/04 05:50:01;;;;;;;18.87;6.90;;;;;;;13.30;41.27;101225.69;5030530;28;20370;-72
2022/04/04 05:52:27;;;;;;;11.83;6.80;;;;;;;12.42;42.84;101221.59;5045959;28;20025;-72
2022/04/04 05:54:57;;;;;;;16.50;6.77;;;;;;;14.06;40.06;101212.19;5029613;28;20029;-72
2022/04/04 05:57:24;;;;;;;9.40;6.47;;;;;;;13.61;40.46;101219.13;5029015;28;20079;-71
2022/04/04 05:59:51;;;;;;;12.67;5.93;;;;;;;12.98;42.45;101219.16;5013216;28;20424;-72
2022/04/04 06:02:16;;;;;;;10.77;5.30;;;;;;;13.26;42.02;101224.00;5028879;28;20025;-72
2022/04/04 06:04:42;;;;;;;14.77;6.57;;;;;;;13.36;41.66;101212.50;5036842;28;20037;-72
2022/04/04 06:07:07;;;;;;;14.73;5.80;;;;;;;13.46;42.55;101207.94;5029627;28;20112;-71
2022/04/04 06:09:32;;;;;;;12.03;6.13;;;;;;;13.92;41.73;101206.31;5029459;28;20029;-72
2022/04/04 06:11:58;;;;;;;11.60;6.60;;;;;;;13.30;42.73;101217.81;5028081;28;20116;-72
2022/04/04 06:14:23;;;;;;;19.33;6.20;;;;;;;12.76;44.48;101204.59;5030063;28;20186;-71
2022/04/04 06:16:49;;;;;;;11.17;6.00;;;;;;;13.81;42.45;101200.41;5030092;28;20477;-72
2022/04/04 06:19:14;;;;;;;15.90;6.37;;;;;;;13.28;44.72;101201.19;5034767;28;20443;-71
2022/04/04 06:21:39;;;;;;;14.33;7.00;;;;;;;12.86;46.06;101200.97;5037253;28;20547;-71
2022/04/04 06:24:05;;;;;;;17.07;7.13;;;;;;;12.90;45.89;101197.41;5033950;28;20032;-72
2022/04/04 06:26:31;;;;;;;16.57;7.17;;;;;;;13.06;45.79;101198.03;5029390;28;20026;-72
2022/04/04 06:28:56;;;;;;;17.00;7.30;;;;;;;13.32;45.54;101188.91;5028618;28;20454;-72
2022/04/04 06:31:21;;;;;;;9.20;5.57;;;;;;;12.57;47.00;101183.84;5029793;28;20040;-71
2022/04/04 06:33:48;;;;;;;11.40;5.60;;;;;;;12.55;47.92;101180.38;5028410;28;20118;-71
2022/04/04 06:36:13;;;;;;;12.27;6.00;;;;;;;12.23;48.91;101168.53;5027641;28;20028;-72
2022/04/04 06:38:39;;;;;;;19.20;6.30;;;;;;;13.31;46.72;101161.81;5019920;28;20026;-72
2022/04/04 06:41:08;;;;;;;12.50;6.20;;;;;;;12.75;47.02;101166.13;5027147;28;20417;-72
2022/04/04 06:43:33;;;;;;;11.33;6.17;;;;;;;13.26;46.61;101153.13;5035879;28;20029;-72
2022/04/04 06:46:00;;;;;;;16.00;7.20;;;;;;;13.22;45.96;101147.03;5029250;28;20045;-71
2022/04/04 06:48:26;;;;;;;10.90;5.47;;;;;;;12.61;46.90;101148.84;5027510;28;20017;-72
2022/04/04 06:50:51;;;;;;;15.20;7.00;;;;;;;13.49;46.16;101141.38;5029175;28;20025;-72
2022/04/04 06:53:21;;;;;;;11.80;6.80;;;;;;;12.51;48.08;101147.19;5026608;28;20024;-72
2022/04/04 06:55:47;;;;;;;13.57;7.03;;;;;;;13.44;45.98;101135.38;5028077;28;20033;-72
2022/04/04 06:58:13;;;;;;;12.00;6.27;;;;;;;13.96;45.31;101136.16;5026655;28;20555;-72
2022/04/04 07:00:38;;;;;;;14.00;6.40;;;;;;;14.01;44.43;101137.84;5028136;28;20041;-72
2022/04/04 07:03:05;;;;;;;14.50;6.10;;;;;;;13.09;47.19;101128.91;5032081;28;20026;-72
2022/04/04 07:05:31;;;;;;;10.13;6.00;;;;;;;13.31;46.92;101117.19;5032669;28;20103;-71
2022/04/04 07:07:56;;;;;;;14.00;6.10;;;;;;;13.17;47.52;101116.50;5031163;28;20104;-72
2022/04/04 07:10:21;;;;;;;10.70;5.73;;;;;;;12.78;48.61;101104.00;5031275;28;20465;-72
2022/04/04 07:12:47;;;;;;;10.97;5.97;;;;;;;13.18;47.54;101102.50;5033090;28;20018;-72
2022/04/04 07:15:12;;;;;;;13.97;6.60;;;;;;;13.24;47.47;101107.66;5029215;28;20485;-72
2022/04/04 07:17:40;;;;;;;21.17;6.07;;;;;;;13.04;48.52;101100.13;5032224;28;20029;-72
2022/04/04 07:20:06;;;;;;;12.33;6.60;;;;;;;13.14;47.92;101100.84;5031457;28;20021;-72
2022/04/04 07:22:36;;;;;;;15.80;6.90;;;;;;;12.59;49.64;101092.91;5028882;28;20049;-72
2022/04/04 07:25:03;;;;;;;9.70;6.43;;;;;;;13.61;47.00;101101.78;5032609;28;20045;-72
2022/04/04 07:27:29;;;;;;;12.20;5.70;;;;;;;11.80;52.57;101090.34;5032777;28;20028;-71
2022/04/04 07:29:56;;;;;;;16.47;7.23;;;;;;;13.66;48.88;101085.94;5029684;28;20132;-71
2022/04/04 07:32:21;;;;;;;13.07;6.33;;;;;;;13.42;48.96;101089.88;5032307;28;20052;-73
2022/04/04 07:34:47;;;;;;;15.90;8.13;;;;;;;12.70;51.25;101088.38;5031925;28;20028;-72
2022/04/04 07:37:12;;;;;;;16.27;6.23;;;;;;;13.08;49.66;101070.31;5038287;28;20122;-72
2022/04/04 07:39:37;;;;;;;11.60;5.90;;;;;;;13.59;48.21;101087.81;5051984;28;20025;-72
2022/04/04 07:42:03;;;;;;;9.67;5.97;;;;;;;13.48;49.54;101071.41;5031854;28;20393;-72
2022/04/04 07:44:29;;;;;;;14.20;4.77;;;;;;;12.21;52.70;101073.31;5029656;28;20124;-72
2022/04/04 07:46:54;;;;;;;7.27;3.93;;;;;;;12.27;53.38;101078.50;5030915;28;20466;-72
2022/04/04 07:49:19;;;;;;;13.53;5.17;;;;;;;12.81;53.43;101082.09;5029291;28;20116;-71
2022/04/04 07:51:45;;;;;;;11.07;5.50;;;;;;;12.82;51.81;101060.25;5032341;28;20034;-72
2022/04/04 07:54:11;;;;;;;10.90;4.97;;;;;;;12.37;53.45;101047.78;5043238;28;20185;-72
2022/04/04 07:56:36;;;;;;;8.70;4.50;;;;;;;11.87;55.02;101044.91;5031988;28;20351;-71
2022/04/04 07:59:02;;;;;;;7.57;4.57;;;;;;;11.93;55.20;101051.81;5031737;28;20541;-72
2022/04/04 08:01:27;;;;;;;12.33;4.43;;;;;;;12.22;54.67;101047.09;5030889;28;20030;-72
2022/04/04 08:03:52;;;;;;;9.63;4.07;;;;;;;12.91;51.79;101031.22;5028346;28;20029;-72
2022/04/04 08:06:18;;;;;;;5.47;3.87;;;;;;;12.80;52.13;101031.38;5030356;28;20040;-72
2022/04/04 08:08:43;;;;;;;8.40;3.83;;;;;;;12.37;52.97;101013.69;5030845;28;20049;-73
2022/04/04 08:11:11;;;;;;;9.23;4.53;;;;;;;12.48;53.02;101026.66;5030725;28;20036;-72
2022/04/04 08:13:42;;;;;;;6.03;3.47;;;;;;;12.10;54.95;101034.13;5031201;28;20040;-73
2022/04/04 08:16:08;;;;;;;5.03;3.10;;;;;;;11.75;56.32;101029.34;5032146;28;20036;-71
2022/04/04 08:18:34;;;;;;;13.17;3.53;;;;;;;12.05;55.27;101013.25;5029939;28;20025;-71
2022/04/04 08:21:00;;;;;;;6.47;4.20;;;;;;;11.97;56.96;101014.25;5031789;28;20041;-72
2022/04/04 08:23:29;;;;;;;11.03;3.73;;;;;;;12.80;52.21;101007.78;5029424;28;20049;-71
2022/04/04 08:25:56;;;;;;;9.57;4.33;;;;;;;11.73;56.30;101010.13;5011955;28;20026;-74
2022/04/04 08:28:21;;;;;;;8.50;4.00;;;;;;;12.71;55.36;101003.56;5022116;28;20026;-73
2022/04/04 08:30:47;;;;;;;11.50;4.03;;;;;;;11.89;56.48;101001.22;5030747;28;20051;-74
2022/04/04 08:33:12;;;;;;;12.27;4.80;;;;;;;11.96;57.67;101000.28;5029865;28;20080;-72
2022/04/04 08:35:38;;;;;;;12.90;4.70;;;;;;;12.90;53.02;100998.03;5030201;28;20029;-73
2022/04/04 08:38:04;;;;;;;7.27;3.53;;;;;;;11.88;56.45;100989.00;5030975;28;20029;-73
2022/04/04 08:40:29;;;;;;;12.97;4.53;;;;;;;12.72;54.17;100992.19;4998226;28;20068;-70
2022/04/04 08:42:56;;;;;;;20.03;6.07;;;;;;;12.18;55.13;100997.38;5009842;28;20065;-73
2022/04/04 08:45:22;;;;;;;8.20;3.47;;;;;;;12.19;58.38;100988.63;5031645;28;20492;-73
2022/04/04 08:47:48;;;;;;;11.23;3.80;;;;;;;12.29;57.33;100978.88;5027768;28;20027;-73
2022/04/04 08:50:14;;;;;;;9.37;4.10;;;;;;;12.39;54.94;100960.38;5011330;28;20033;-73
2022/04/04 08:52:40;;;;;;;16.57;4.30;;;;;;;12.70;55.37;100975.59;5031487;28;20033;-72
2022/04/04 08:55:08;;;;;;;10.50;3.50;;;;;;;12.18;59.05;100965.91;5027929;28;20531;-73
2022/04/04 08:57:33;;;;;;;16.80;5.37;;;;;;;12.81;55.92;100966.69;5031260;28;20040;-73
2022/04/04 08:59:58;;;;;;;9.60;3.87;;;;;;;12.60;56.44;100947.81;5028896;28;20021;-73
2022/04/04 09:02:24;;;;;;;6.57;4.03;;;;;;;13.34;54.35;100963.97;5030101;28;20469;-73
2022/04/04 09:04:52;;;;;;;10.50;4.50;;;;;;;13.03;54.86;100944.41;5028522;28;20143;-72
2022/04/04 09:07:19;;;;;;;11.00;3.90;;;;;;;12.93;56.32;100958.59;5031068;28;20119;-72
2022/04/04 09:09:46;;;;;;;9.40;3.90;;;;;;;12.48;58.61;100942.75;5031571;28;20025;-72
2022/04/04 09:12:16;;;;;;;11.03;4.13;;;;;;;12.80;58.94;100944.81;5028931;28;20045;-71
2022/04/04 09:14:43;;;;;;;13.23;3.77;;;;;;;12.08;62.54;100932.91;5029401;28;20029;-72
2022/04/04 09:17:09;;;;;;;11.37;4.20;;;;;;;13.31;57.86;100946.53;5028467;28;20552;-70
2022/04/04 09:19:34;;;;;;;9.80;4.17;;;;;;;12.61;59.57;100933.81;5029619;28;20033;-72
2022/04/04 09:22:05;;;;;;;6.57;3.73;;;;;;;12.91;58.42;100942.00;5027852;28;20571;-73
2022/04/04 09:24:55;;;;;;;9.07;3.77;;;;;;;14.00;55.53;100932.84;5029306;28;20060;-72
2022/04/04 09:27:36;;;;;;;5.30;3.20;;;;;;;12.87;57.84;100924.59;5029085;28;20072;-72
2022/04/04 09:30:19;;;;;;;8.23;4.03;;;;;;;14.31;54.87;100919.84;5030430;28;20036;-72
2022/04/04 09:32:46;;;;;;;10.47;3.10;;;;;;;12.97;59.21;100923.53;5026536;28;20045;-72
2022/04/04 09:35:20;;;;;;;11.97;4.43;;;;;;;12.62;61.26;100913.69;5028005;28;20175;-73
2022/04/04 09:37:48;;;;;;;8.63;3.43;;;;;;;12.75;59.79;100906.44;5028353;28;20033;-71
2022/04/04 09:40:15;;;;;;;10.03;2.93;;;;;;;13.32;58.73;100926.38;5027817;28;20108;-72
2022/04/04 09:42:43;;;;;;;4.00;2.60;;;;;;;13.03;59.26;100905.06;5022283;28;20032;-71
2022/04/04 09:45:13;;;;;;;5.90;2.80;;;;;;;13.39;58.01;100902.66;5027256;28;20057;-73
2022/04/04 09:47:57;;;;;;;11.27;3.03;;;;;;;12.20;64.72;100906.50;5028324;28;20108;-72
2022/04/04 09:50:38;;;;;;;11.03;3.60;;;;;;;13.73;56.19;100896.66;5028787;28;20036;-73
2022/04/04 09:53:06;;;;;;;4.73;2.03;;;;;;;11.95;64.27;100911.22;5030092;28;20025;-72
2022/04/04 09:55:34;;;;;;;4.70;2.57;;;;;;;12.89;58.89;100894.81;5030114;28;20107;-72
2022/04/04 09:58:02;;;;;;;7.63;2.27;;;;;;;13.12;59.08;100892.66;5021106;28;20030;-72
2022/04/04 10:00:28;;;;;;;10.83;2.47;;;;;;;13.47;57.75;100901.63;5026835;28;20037;-72
2022/04/04 10:02:58;;;;;;;5.73;2.57;;;;;;;13.21;60.22;100890.69;5026103;28;20029;-70
2022/04/04 10:05:26;;;;;;;5.00;2.53;;;;;;;12.90;58.66;100896.56;5056552;28;20124;-73
2022/04/04 10:07:55;;;;;;;5.20;2.53;;;;;;;13.83;58.77;100883.31;5022821;28;20025;-73
2022/04/04 10:10:26;;;;;;;7.73;2.77;;;;;;;12.64;61.46;100883.91;5026577;28;20037;-73
2022/04/04 10:12:52;;;;;;;4.87;2.47;;;;;;;13.17;61.08;100880.31;5027641;28;20063;-72
2022/04/04 10:15:19;;;;;;;5.37;2.33;;;;;;;12.97;61.56;100868.44;5027165;28;20112;-73
2022/04/04 10:17:45;;;;;;;5.67;3.20;;;;;;;13.13;60.16;100873.38;5028086;28;20115;-72
2022/04/04 10:20:11;;;;;;;6.60;2.10;;;;;;;13.28;61.07;100852.06;5026763;28;20025;-73
2022/04/04 10:22:38;;;;;;;6.77;2.73;;;;;;;13.29;62.07;100853.81;5016761;28;20516;-73
2022/04/04 10:25:07;;;;;;;3.33;1.97;;;;;;;13.05;63.17;100860.41;5027387;28;20021;-72
2022/04/04 10:27:36;;;;;;;6.70;1.93;;;;;;;13.57;60.68;100861.13;5026754;28;20128;-73
2022/04/04 10:30:05;;;;;;;7.07;1.83;;;;;;;14.38;56.31;100858.34;5027759;28;20087;-72
2022/04/04 10:32:32;;;;;;;4.07;1.70;;;;;;;13.12;61.67;100876.91;5029345;28;20496;-72
2022/04/04 10:34:58;;;;;;;3.73;1.47;;;;;;;13.71;59.44;100850.31;5030302;28;20033;-73
2022/04/04 10:37:30;;;;;;;5.37;2.27;;;;;;;13.60;60.56;100861.06;5024402;28;20562;-73
2022/04/04 10:39:55;;;;;;;6.10;2.40;;;;;;;14.04;59.12;100843.41;5052800;28;20104;-73
2022/04/04 10:42:38;;;;;;;11.33;3.07;;;;;;;13.79;58.41;100837.00;5033351;28;20062;-72
2022/04/04 10:45:11;;;;;;;4.28;2.05;;;;;;;13.54;60.50;100832.31;5037001;28;20048;-73
2022/04/04 10:47:42;;;;;;;6.10;2.63;;;;;;;13.98;59.17;100835.66;5033358;28;20140;-73
2022/04/04 10:50:18;;;;;;;3.87;2.50;;;;;;;13.89;59.37;100820.13;5031899;28;20033;-73
2022/04/04 10:52:44;;;;;;;7.53;2.93;;;;;;;13.79;59.03;100824.72;5019916;28;20029;-73
2022/04/04 10:55:38;;;;;;;5.47;2.50;;;;;;;14.50;56.82;100816.84;5033607;28;20086;-73
2022/04/04 10:58:09;;;;;;;;;;;;;;;14.35;59.96;100816.34;5026804;28;20087;-73
2022/04/04 11:01:03;;;;;;;4.03;2.93;;;;;;;13.99;59.85;100828.66;5063533;28;20034;-72
2022/04/04 11:03:34;;;;;;;4.73;3.00;;;;;;;14.18;61.46;100811.53;5020774;28;20079;-73
2022/04/04 11:09:18;;;;;;;4.57;2.70;;;;;;;14.52;58.12;100813.28;5029923;28;20054;-72
2022/04/04 11:11:47;;;;;;;7.13;3.73;;;;;;;14.86;56.66;100811.50;5019382;28;20025;-73
2022/04/04 11:14:14;;;;;;;5.00;2.67;;;;;;;14.95;56.72;100806.00;5033072;28;20523;-73
2022/04/04 11:17:08;;;;;;;6.57;3.60;;;;;;;14.64;57.51;100806.84;5042566;28;20029;-74
2022/04/04 11:19:49;;;;;;;6.97;2.90;;;;;;;14.04;60.70;100811.88;5026149;28;20103;-73
2022/04/04 11:22:17;;;;;;;3.00;2.30;;;;;;;14.08;62.24;100792.50;5037226;28;20047;-73
2022/04/04 11:24:44;;;;;;;3.90;2.67;;;;;;;14.71;59.94;100784.75;5032156;28;20021;-73
2022/04/04 11:27:10;;;;;;;5.30;2.60;;;;;;;14.47;59.16;100780.13;5028142;28;20040;-72
2022/04/04 11:29:38;;;;;;;7.07;2.63;;;;;;;14.58;59.93;100775.44;5033058;28;20061;-73